createdAt,value
2023-01-11T00:00:56.838Z,82.36
2023-01-11T00:03:24.277Z,82.49
2023-01-11T00:05:51.755Z,82.75
2023-01-11T00:08:19.275Z,83.81
2023-01-11T00:10:46.715Z,83.24
2023-01-11T00:13:14.784Z,82.69
2023-01-11T00:15:43.713Z,82.34
2023-01-11T00:18:12.078Z,82.17
2023-01-11T00:20:39.861Z,81.78
2023-01-11T00:23:07.375Z,82.31
2023-01-11T00:25:34.882Z,81.38
2023-01-11T00:28:02.262Z,81.38
2023-01-11T00:30:29.721Z,81.45
2023-01-11T00:32:59.407Z,81.34
2023-01-11T00:35:28.978Z,81.54
2023-01-11T00:37:56.379Z,80.99
2023-01-11T00:40:24.415Z,80.83
2023-01-11T00:43:09.113Z,80.88
2023-01-11T00:45:54.270Z,81.16
2023-01-11T00:48:22.996Z,81.54
2023-01-11T00:50:54.381Z,81.20
2023-01-11T00:53:22.455Z,81.00
2023-01-11T00:55:49.755Z,81.01
2023-01-11T00:58:17.102Z,80.54
2023-01-11T01:00:44.520Z,80.13
2023-01-11T01:03:11.913Z,79.87
2023-01-11T01:05:41.757Z,79.76
2023-01-11T01:08:09.213Z,79.19
2023-01-11T01:10:36.629Z,79.19
2023-01-11T01:13:21.554Z,78.85
2023-01-11T01:15:49.076Z,78.71
2023-01-11T01:18:16.491Z,78.50
2023-01-11T01:20:45.157Z,78.46
2023-01-11T01:23:12.530Z,78.48
2023-01-11T01:25:39.921Z,78.48
2023-01-11T01:28:07.307Z,78.09
2023-01-11T01:30:34.681Z,78.05
2023-01-11T01:33:02.029Z,77.77
2023-01-11T01:35:29.403Z,77.65
2023-01-11T01:37:58.072Z,77.61
2023-01-11T01:40:25.456Z,77.43
2023-01-11T01:42:55.010Z,77.28
2023-01-11T01:45:24.698Z,77.20
2023-01-11T01:47:57.388Z,76.99
2023-01-11T01:50:28.888Z,77.07
2023-01-11T01:53:02.962Z,77.09
2023-01-11T01:55:34.545Z,77.24
2023-01-11T01:58:05.503Z,77.24
2023-01-11T02:00:33.170Z,77.87
2023-01-11T02:03:02.554Z,78.25
2023-01-11T02:05:30.101Z,77.85
2023-01-11T02:08:01.047Z,77.52
2023-01-11T02:10:29.052Z,77.50
2023-01-11T02:12:59.172Z,77.51
2023-01-11T02:15:27.361Z,77.39
2023-01-11T02:17:54.768Z,77.61
2023-01-11T02:20:33.629Z,77.12
2023-01-11T02:23:36.413Z,77.51
2023-01-11T02:26:31.835Z,77.21
2023-01-11T02:29:09.769Z,76.87
2023-01-11T02:31:42.205Z,76.49
2023-01-11T02:34:21.270Z,76.41
2023-01-11T02:37:03.653Z,76.01
2023-01-11T02:39:38.227Z,75.86
2023-01-11T02:42:30.234Z,75.92
2023-01-11T02:45:09.175Z,75.34
2023-01-11T02:47:47.329Z,75.80
2023-01-11T02:50:23.100Z,75.68
2023-01-11T02:52:58.639Z,75.35
2023-01-11T02:55:29.497Z,75.29
2023-01-11T02:58:01.525Z,75.31
2023-01-11T03:00:30.604Z,75.54
2023-01-11T03:03:14.439Z,75.76
2023-01-11T03:05:47.045Z,75.20
2023-01-11T03:08:31.247Z,75.55
2023-01-11T03:11:05.830Z,75.35
2023-01-11T03:13:47.556Z,75.06
2023-01-11T03:16:23.796Z,75.02
2023-01-11T03:18:55.363Z,75.20
2023-01-11T03:21:33.319Z,75.55
2023-01-11T03:24:06.053Z,75.57
2023-01-11T03:26:42.812Z,75.60
2023-01-11T03:29:20.324Z,75.55
2023-01-11T03:31:55.652Z,75.06
2023-01-11T03:34:31.767Z,75.26
2023-01-11T03:37:04.643Z,75.20
2023-01-11T03:39:38.760Z,75.37
2023-01-11T03:42:08.461Z,74.87
2023-01-11T03:44:43.405Z,75.08
2023-01-11T03:47:15.701Z,75.09
2023-01-11T03:49:48.497Z,75.13
2023-01-11T03:52:19.623Z,75.20
2023-01-11T03:54:48.133Z,75.24
2023-01-11T03:57:19.498Z,74.75
2023-01-11T03:59:47.398Z,74.85
2023-01-11T04:02:20.627Z,74.88
2023-01-11T04:04:48.357Z,74.82
2023-01-11T04:07:16.815Z,74.31
2023-01-11T04:09:44.169Z,74.62
2023-01-11T04:12:11.887Z,74.60
2023-01-11T04:14:39.474Z,74.64
2023-01-11T04:17:06.899Z,74.61
2023-01-11T04:19:35.583Z,74.62
2023-01-11T04:22:02.921Z,75.04
2023-01-11T04:24:30.276Z,75.10
2023-01-11T04:26:57.615Z,75.06
2023-01-11T04:29:24.997Z,74.69
2023-01-11T04:31:52.391Z,74.45
2023-01-11T04:34:19.807Z,74.34
2023-01-11T04:36:48.486Z,74.13
2023-01-11T04:39:15.908Z,74.27
2023-01-11T04:42:01.175Z,74.31
2023-01-11T04:44:28.570Z,74.25
2023-01-11T04:46:55.911Z,74.21
2023-01-11T04:49:23.277Z,74.05
2023-01-11T04:51:52.249Z,73.50
2023-01-11T04:54:19.781Z,73.74
2023-01-11T04:56:47.150Z,73.99
2023-01-11T04:59:14.873Z,73.67
2023-01-11T05:01:42.281Z,73.77
2023-01-11T05:04:11.395Z,73.65
2023-01-11T05:06:40.091Z,72.99
2023-01-11T05:09:14.113Z,73.14
2023-01-11T05:11:41.538Z,73.31
2023-01-11T05:14:09.230Z,73.09
2023-01-11T05:16:36.969Z,73.49
2023-01-11T05:19:06.174Z,72.86
2023-01-11T05:21:35.384Z,73.19
2023-01-11T05:24:05.217Z,73.10
2023-01-11T05:26:35.685Z,73.45
2023-01-11T05:29:05.033Z,73.11
2023-01-11T05:31:33.498Z,73.19
2023-01-11T05:34:01.223Z,73.34
2023-01-11T05:36:29.527Z,72.96
2023-01-11T05:38:57.732Z,73.08
2023-01-11T05:41:26.863Z,73.02
2023-01-11T05:44:13.805Z,73.46
2023-01-11T05:46:43.179Z,73.31
2023-01-11T05:49:12.029Z,73.25
2023-01-11T05:51:39.852Z,73.60
2023-01-11T05:54:10.185Z,73.64
2023-01-11T05:56:37.666Z,73.68
2023-01-11T05:59:07.064Z,73.30
2023-01-11T06:01:34.664Z,73.38
2023-01-11T06:04:02.077Z,73.78
2023-01-11T06:06:29.745Z,73.83
2023-01-11T06:08:57.204Z,73.79
2023-01-11T06:11:24.581Z,74.01
2023-01-11T06:13:52.007Z,73.92
2023-01-11T06:16:22.145Z,73.92
2023-01-11T06:18:51.551Z,74.06
2023-01-11T06:21:20.186Z,73.45
2023-01-11T06:23:51.256Z,73.88
2023-01-11T06:26:21.069Z,73.78
2023-01-11T06:28:48.853Z,73.71
2023-01-11T06:31:17.818Z,73.66
2023-01-11T06:33:47.424Z,73.38
2023-01-11T06:36:15.994Z,74.12
2023-01-11T06:38:44.220Z,73.93
2023-01-11T06:41:12.535Z,73.66
2023-01-11T06:43:41.803Z,73.91
2023-01-11T06:46:15.546Z,73.76
2023-01-11T06:48:43.351Z,73.71
2023-01-11T06:51:13.367Z,73.77
2023-01-11T06:53:42.053Z,73.73
2023-01-11T06:56:13.024Z,73.23
2023-01-11T06:58:40.446Z,73.24
2023-01-11T07:01:08.114Z,73.56
2023-01-11T07:03:35.706Z,73.52
2023-01-11T07:06:04.364Z,73.65
2023-01-11T07:08:33.120Z,73.13
2023-01-11T07:11:00.562Z,73.21
2023-01-11T07:13:27.990Z,73.23
2023-01-11T07:15:58.140Z,73.09
2023-01-11T07:18:25.623Z,72.72
2023-01-11T07:20:53.075Z,72.97
2023-01-11T07:23:20.462Z,72.93
2023-01-11T07:25:50.326Z,73.27
2023-01-11T07:28:17.778Z,72.97
2023-01-11T07:30:57.280Z,72.79
2023-01-11T07:33:25.486Z,72.82
2023-01-11T07:35:52.965Z,72.75
2023-01-11T07:38:20.413Z,72.92
2023-01-11T07:40:47.835Z,72.84
2023-01-11T07:43:15.715Z,73.03
2023-01-11T07:45:46.649Z,72.82
2023-01-11T07:48:14.899Z,72.99
2023-01-11T07:50:45.165Z,73.28
2023-01-11T07:53:13.288Z,73.65
2023-01-11T07:55:42.480Z,73.12
2023-01-11T07:58:12.236Z,73.09
2023-01-11T08:00:41.650Z,73.28
2023-01-11T08:03:09.323Z,73.51
2023-01-11T08:05:36.862Z,72.84
2023-01-11T08:08:04.351Z,72.80
2023-01-11T08:10:32.096Z,72.87
2023-01-11T08:13:28.965Z,72.63
2023-01-11T08:15:58.248Z,72.06
2023-01-11T08:18:25.770Z,72.35
2023-01-11T08:20:53.670Z,71.78
2023-01-11T08:23:21.074Z,72.04
2023-01-11T08:25:48.479Z,72.17
2023-01-11T08:28:15.894Z,71.92
2023-01-11T08:30:44.302Z,71.95
2023-01-11T08:33:13.033Z,71.73
2023-01-11T08:35:41.061Z,71.67
2023-01-11T08:38:08.700Z,72.08
2023-01-11T08:40:36.670Z,72.17
2023-01-11T08:43:03.984Z,72.22
2023-01-11T08:45:31.412Z,71.99
2023-01-11T08:48:00.397Z,72.47
2023-01-11T08:50:29.197Z,72.41
2023-01-11T08:52:56.580Z,72.56
2023-01-11T08:55:24.085Z,72.34
2023-01-11T08:57:51.471Z,72.21
2023-01-11T09:00:20.838Z,72.72
2023-01-11T09:02:48.244Z,72.45
2023-01-11T09:05:18.085Z,72.58
2023-01-11T09:07:47.337Z,72.21
2023-01-11T09:10:14.724Z,72.36
2023-01-11T09:12:42.164Z,72.70
2023-01-11T09:15:10.439Z,72.72
2023-01-11T09:17:37.819Z,72.86
2023-01-11T09:20:06.169Z,72.57
2023-01-11T09:22:33.783Z,72.84
2023-01-11T09:25:02.584Z,72.63
2023-01-11T09:27:29.988Z,72.93
2023-01-11T09:29:57.425Z,72.98
2023-01-11T09:32:24.797Z,72.90
2023-01-11T09:34:57.170Z,73.01
2023-01-11T09:37:24.659Z,72.81
2023-01-11T09:39:52.574Z,72.72
2023-01-11T09:42:32.226Z,72.60
2023-01-11T09:45:07.069Z,72.19
2023-01-11T09:47:40.797Z,72.54
2023-01-11T09:50:14.358Z,73.06
2023-01-11T09:52:46.241Z,73.22
2023-01-11T09:55:20.060Z,73.05
2023-01-11T09:57:59.136Z,73.01
2023-01-11T10:00:33.963Z,73.12
2023-01-11T10:03:24.119Z,73.42
2023-01-11T10:05:59.922Z,73.39
2023-01-11T10:18:31.447Z,73.56
2023-01-11T10:18:40.604Z,73.62
2023-01-11T10:20:34.929Z,73.83
2023-01-11T10:23:08.290Z,73.62
2023-01-11T10:25:44.104Z,73.86
2023-01-11T10:28:23.069Z,73.74
2023-01-11T10:31:08.082Z,73.83
2023-01-11T10:34:05.823Z,73.18
2023-01-11T10:36:51.659Z,73.26
2023-01-11T10:39:46.421Z,73.09
2023-01-11T10:42:21.561Z,73.28
2023-01-11T10:44:57.899Z,72.66
2023-01-11T10:47:32.356Z,72.96
2023-01-11T10:50:05.952Z,72.94
2023-01-11T10:52:41.320Z,72.94
2023-01-11T10:55:13.796Z,72.63
2023-01-11T10:58:02.090Z,73.14
2023-01-11T11:00:37.090Z,73.02
2023-01-11T11:03:21.257Z,73.57
2023-01-11T11:05:54.046Z,72.87
2023-01-11T11:08:28.811Z,73.34
2023-01-11T11:11:02.103Z,72.89
2023-01-11T11:13:44.984Z,72.78
2023-01-11T11:16:25.721Z,72.77
2023-01-11T11:18:58.260Z,72.30
2023-01-11T11:21:29.250Z,72.44
2023-01-11T11:24:01.116Z,72.16
2023-01-11T11:26:37.199Z,72.31
2023-01-11T11:29:07.120Z,72.40
2023-01-11T11:31:37.204Z,72.93
2023-01-11T11:34:08.487Z,72.44
2023-01-11T11:36:43.563Z,72.29
2023-01-11T11:39:18.785Z,72.20
2023-01-11T11:41:49.250Z,72.09
2023-01-11T11:44:20.346Z,71.97
2023-01-11T11:47:06.548Z,71.90
2023-01-11T11:49:36.644Z,71.90
2023-01-11T11:52:06.109Z,71.91
2023-01-11T11:54:36.676Z,72.16
2023-01-11T11:57:15.381Z,72.46
2023-01-11T11:59:47.236Z,72.89
2023-01-11T12:02:25.235Z,72.75
2023-01-11T12:04:55.849Z,72.78
2023-01-11T12:07:26.588Z,73.10
2023-01-11T12:09:59.865Z,73.46
2023-01-11T12:12:29.548Z,73.98
2023-01-11T12:15:18.559Z,73.93
2023-01-11T12:17:46.378Z,73.62
2023-01-11T12:20:42.330Z,74.25
2023-01-11T12:23:14.549Z,73.55
2023-01-11T12:25:52.854Z,73.41
2023-01-11T12:28:32.113Z,73.66
2023-01-11T12:31:08.062Z,73.70
2023-01-11T12:33:45.509Z,73.63
2023-01-11T12:36:23.989Z,74.30
2023-01-11T12:39:05.117Z,73.90
2023-01-11T12:41:50.012Z,74.24
2023-01-11T12:44:31.193Z,74.04
2023-01-11T12:47:16.760Z,74.07
2023-01-11T12:49:51.097Z,74.10
2023-01-11T12:52:42.024Z,74.52
2023-01-11T12:55:29.147Z,73.62
2023-01-11T12:58:02.289Z,73.62
2023-01-11T13:00:52.211Z,74.16
2023-01-11T13:03:41.993Z,74.13
2023-01-11T13:06:15.038Z,74.14
2023-01-11T13:08:56.241Z,74.38
2023-01-11T13:11:38.355Z,74.42
2023-01-11T13:14:23.923Z,74.57
2023-01-11T13:17:04.402Z,74.95
2023-01-11T13:19:42.484Z,74.59
2023-01-11T13:22:18.229Z,75.04
2023-01-11T13:24:50.689Z,75.04
2023-01-11T13:27:22.378Z,75.35
2023-01-11T13:29:52.980Z,75.51
2023-01-11T13:32:23.787Z,75.22
2023-01-11T13:34:55.070Z,75.97
2023-01-11T13:37:30.475Z,76.26
2023-01-11T13:40:07.877Z,76.42
2023-01-11T13:42:39.193Z,76.23
2023-01-11T13:45:16.455Z,76.58
2023-01-11T13:47:48.078Z,76.60
2023-01-11T13:50:21.444Z,76.50
2023-01-11T13:53:03.368Z,76.74
2023-01-11T13:55:38.507Z,76.93
2023-01-11T13:58:14.754Z,77.07
2023-01-11T14:00:46.123Z,76.89
2023-01-11T14:03:26.151Z,77.07
2023-01-11T14:06:05.730Z,77.67
2023-01-11T14:08:52.866Z,76.54
2023-01-11T14:11:31.588Z,76.87
2023-01-11T14:14:37.291Z,77.28
2023-01-11T14:17:28.134Z,77.72
2023-01-11T14:20:04.854Z,77.65
2023-01-11T14:22:39.427Z,78.03
2023-01-11T14:25:14.977Z,79.09
2023-01-11T14:28:04.020Z,79.16
2023-01-11T14:30:47.684Z,79.75
2023-01-11T14:33:46.149Z,80.23
2023-01-11T14:36:43.332Z,80.88
2023-01-11T14:39:47.946Z,81.07
2023-01-11T14:42:54.653Z,81.56
2023-01-11T14:45:48.116Z,81.77
2023-01-11T14:48:25.104Z,82.05
2023-01-11T14:51:15.235Z,82.57
2023-01-11T14:53:45.840Z,83.08
2023-01-11T14:56:36.701Z,83.49
2023-01-11T14:59:05.809Z,83.81
2023-01-11T15:04:26.835Z,84.49
2023-01-11T15:06:55.468Z,85.23
2023-01-11T15:09:46.074Z,85.75
2023-01-11T15:12:15.571Z,85.81
2023-01-11T15:14:48.092Z,86.73
2023-01-11T15:17:36.770Z,86.35
2023-01-11T15:20:11.229Z,86.22
2023-01-11T15:22:39.083Z,86.33
2023-01-11T15:25:19.836Z,88.11
2023-01-11T15:27:47.706Z,88.33
2023-01-11T15:30:36.944Z,87.60
2023-01-11T15:33:29.064Z,87.91
2023-01-11T15:36:06.747Z,87.08
2023-01-11T15:38:38.515Z,86.38
2023-01-11T15:41:29.845Z,87.71
2023-01-11T15:44:14.871Z,89.64
2023-01-11T15:47:21.480Z,89.71
2023-01-11T15:50:19.740Z,89.98
2023-01-11T15:53:18.415Z,91.02
2023-01-11T15:56:11.168Z,91.38
2023-01-11T15:59:13.274Z,91.09
2023-01-11T16:01:55.291Z,91.36
2023-01-11T16:04:29.248Z,91.64
2023-01-11T16:06:59.694Z,92.67
2023-01-11T16:09:48.200Z,93.21
2023-01-11T16:12:33.491Z,94.00
2023-01-11T16:15:22.983Z,94.75
2023-01-11T16:17:51.349Z,94.72
2023-01-11T16:20:26.454Z,95.03
2023-01-11T16:22:56.731Z,95.43
2023-01-11T16:25:30.003Z,95.82
2023-01-11T16:27:59.165Z,95.44
2023-01-11T16:30:28.130Z,95.67
2023-01-11T16:33:20.276Z,96.30
2023-01-11T16:35:49.249Z,96.82
2023-01-11T16:38:20.481Z,97.31
2023-01-11T16:40:53.529Z,100.00
2023-01-11T16:43:25.828Z,98.67
2023-01-11T16:45:55.048Z,100.00
2023-01-11T16:48:23.691Z,100.00
2023-01-11T16:51:00.708Z,100.00
2023-01-11T16:53:30.056Z,100.00
2023-01-11T16:56:05.335Z,100.00
2023-01-11T16:58:34.929Z,100.00
2023-01-11T17:01:04.962Z,98.35
2023-01-11T17:03:34.181Z,100.00
2023-01-11T17:06:15.090Z,100.00
2023-01-11T17:08:43.781Z,100.00
2023-01-11T17:11:22.214Z,99.15
2023-01-11T17:14:17.798Z,98.95
2023-01-11T17:16:47.645Z,99.00
2023-01-11T17:19:17.094Z,99.31
2023-01-11T17:21:49.247Z,99.37
2023-01-11T17:24:18.769Z,98.77
2023-01-11T17:26:50.173Z,99.28
2023-01-11T17:29:24.285Z,98.97
2023-01-11T17:31:51.809Z,99.39
2023-01-11T17:34:20.952Z,99.03
2023-01-11T17:36:48.785Z,98.83
2023-01-11T17:39:23.663Z,98.34
2023-01-11T17:42:10.537Z,98.33
2023-01-11T17:44:55.764Z,98.92
2023-01-11T17:47:23.662Z,99.42
2023-01-11T17:49:52.494Z,99.03
2023-01-11T17:52:23.263Z,99.48
2023-01-11T17:55:01.367Z,99.32
2023-01-11T17:57:30.110Z,99.44
2023-01-11T18:00:17.292Z,100.00
2023-01-11T18:02:44.835Z,99.88
2023-01-11T18:05:16.855Z,99.77
2023-01-11T18:07:47.926Z,98.52
2023-01-11T18:10:19.998Z,98.80
2023-01-11T18:12:49.586Z,99.36
2023-01-11T18:15:25.433Z,98.71
2023-01-11T18:17:56.771Z,98.94
2023-01-11T18:20:36.255Z,98.54
2023-01-11T18:23:15.885Z,98.83
2023-01-11T18:25:45.970Z,99.42
2023-01-11T18:28:38.934Z,99.25
2023-01-11T18:31:06.588Z,99.07
2023-01-11T18:33:34.995Z,98.86
2023-01-11T18:36:04.477Z,98.18
2023-01-11T18:38:33.563Z,98.34
2023-01-11T18:41:24.791Z,97.87
2023-01-11T18:43:54.449Z,97.66
2023-01-11T18:46:21.900Z,97.62
2023-01-11T18:48:49.321Z,96.96
2023-01-11T18:51:20.120Z,97.45
2023-01-11T18:53:47.511Z,97.39
2023-01-11T18:56:16.289Z,97.66
2023-01-11T18:58:43.719Z,97.35
2023-01-11T19:01:12.726Z,97.29
2023-01-11T19:03:43.743Z,97.13
2023-01-11T19:06:13.995Z,96.44
2023-01-11T19:08:41.403Z,96.19
2023-01-11T19:11:08.801Z,95.44
2023-01-11T19:13:36.181Z,95.56
2023-01-11T19:16:03.660Z,95.25
2023-01-11T19:18:35.245Z,94.89
2023-01-11T19:21:03.297Z,95.34
2023-01-11T19:23:30.727Z,94.92
2023-01-11T19:25:58.447Z,94.82
2023-01-11T19:28:25.839Z,93.71
2023-01-11T19:30:53.258Z,94.34
2023-01-11T19:33:20.703Z,94.37
2023-01-11T19:35:49.783Z,94.21
2023-01-11T19:38:19.499Z,93.91
2023-01-11T19:40:50.284Z,93.91
2023-01-11T19:43:18.146Z,93.78
2023-01-11T19:45:45.555Z,93.64
2023-01-11T19:48:13.054Z,93.54
2023-01-11T19:50:40.398Z,93.29
2023-01-11T19:53:09.116Z,92.97
2023-01-11T19:55:36.474Z,93.24
2023-01-11T19:58:04.573Z,92.92
2023-01-11T20:00:32.770Z,92.51
2023-01-11T20:03:05.698Z,92.79
2023-01-11T20:05:33.611Z,92.73
2023-01-11T20:11:42.958Z,91.64
2023-01-11T20:14:10.384Z,91.41
2023-01-11T20:16:37.853Z,91.58
2023-01-11T20:19:05.519Z,91.43
2023-01-11T20:21:34.172Z,91.97
2023-01-11T20:24:02.354Z,91.66
2023-01-11T20:26:33.677Z,91.70
2023-01-11T20:29:02.895Z,91.17
2023-01-11T20:31:32.957Z,90.95
2023-01-11T20:36:53.299Z,90.56
2023-01-11T20:39:20.714Z,91.06
2023-01-11T20:41:48.611Z,90.03
2023-01-11T20:44:19.633Z,90.33
2023-01-11T20:46:48.465Z,89.54
2023-01-11T20:49:16.573Z,89.93
2023-01-11T20:51:44.251Z,89.89
2023-01-11T20:54:12.208Z,90.09
2023-01-11T20:56:40.709Z,89.91
2023-01-11T21:01:38.673Z,90.38
2023-01-11T21:04:08.055Z,90.05
2023-01-11T21:06:37.258Z,89.89
2023-01-11T21:09:06.076Z,91.03
2023-01-11T21:11:33.946Z,90.82
2023-01-11T21:14:04.072Z,90.70
2023-01-11T21:16:32.447Z,90.91
2023-01-11T21:19:03.172Z,91.26
2023-01-11T21:21:32.469Z,90.95
2023-01-11T21:24:02.539Z,90.91
2023-01-11T21:26:31.545Z,91.06
2023-01-11T21:29:00.586Z,91.03
2023-01-11T21:31:29.168Z,90.16
2023-01-11T21:33:56.910Z,90.08
2023-01-11T21:36:27.639Z,90.29
2023-01-11T21:38:56.471Z,89.82
2023-01-11T21:41:39.781Z,89.50
2023-01-11T21:44:07.291Z,88.64
2023-01-11T21:46:34.930Z,87.81
2023-01-11T21:49:02.404Z,87.58
2023-01-11T21:51:31.168Z,85.87
2023-01-11T21:53:59.703Z,85.64
2023-01-11T21:56:27.349Z,84.69
2023-01-11T21:58:54.718Z,85.75
2023-01-11T22:01:22.264Z,85.92
2023-01-11T22:03:50.203Z,84.78
2023-01-11T22:06:18.044Z,84.41
2023-01-11T22:08:46.855Z,84.30
2023-01-11T22:11:16.532Z,83.69
2023-01-11T22:13:44.230Z,83.99
2023-01-11T22:16:14.564Z,83.74
2023-01-11T22:18:42.987Z,83.71
2023-01-11T22:21:12.267Z,83.29
2023-01-11T22:23:40.374Z,82.41
2023-01-11T22:26:09.933Z,82.48
2023-01-11T22:28:58.043Z,81.35
2023-01-11T22:31:27.310Z,81.93
2023-01-11T22:33:55.336Z,81.53
2023-01-11T22:36:23.473Z,81.50
2023-01-11T22:38:51.268Z,81.88
2023-01-11T22:41:20.680Z,82.13
2023-01-11T22:43:49.491Z,83.34
2023-01-11T22:46:19.190Z,82.59
2023-01-11T22:48:48.479Z,81.81
2023-01-11T22:51:17.681Z,81.96
2023-01-11T22:53:46.653Z,81.78
2023-01-11T22:56:18.164Z,82.14
2023-01-11T22:58:46.973Z,82.71
2023-01-11T23:01:15.968Z,81.71
2023-01-11T23:03:45.165Z,82.04
2023-01-11T23:06:13.463Z,81.43
2023-01-11T23:08:42.589Z,81.94
2023-01-11T23:11:11.603Z,81.64
2023-01-11T23:13:52.826Z,82.18
2023-01-11T23:16:21.971Z,82.99
2023-01-11T23:18:49.426Z,83.07
2023-01-11T23:21:17.791Z,83.49
2023-01-11T23:23:45.300Z,83.34
2023-01-11T23:26:13.315Z,83.33
2023-01-11T23:28:40.776Z,84.32
2023-01-11T23:31:14.696Z,84.32
2023-01-11T23:33:43.429Z,83.53
2023-01-11T23:36:10.877Z,83.59
2023-01-11T23:38:38.516Z,84.40
2023-01-11T23:41:25.015Z,83.26
2023-01-11T23:43:52.587Z,83.65
2023-01-11T23:46:37.571Z,83.58
2023-01-11T23:49:07.731Z,83.87
2023-01-11T23:51:35.797Z,83.46
2023-01-11T23:54:03.527Z,84.52
2023-01-11T23:56:31.959Z,83.48
2023-01-11T23:58:59.464Z,83.49
